Time;durP1;ratioP1;P1;durP2;ratioP2;P2;SDS_P1;SDS_P2;PMS_P1;PMS_P2;Temp;Humidity;BMP_temperature;BMP_pressure;BME280_temperature;BME280_humidity;BME280_pressure;Samples;Min_cycle;Max_cycle;Signal;HPM_P1;HPM_P2
2022/01/11 09:46:50;;;;;;;5.37;3.47;;;;;;;4.51;100.00;100539.50;5128540;27;20543;-83
2022/01/11 09:49:18;;;;;;;6.30;4.30;;;;;;;4.96;100.00;100538.09;5111064;27;40224;-81
2022/01/11 09:51:47;;;;;;;4.93;3.40;;;;;;;5.50;100.00;100550.50;5110665;27;40538;-82
2022/01/11 09:54:15;;;;;;;4.67;3.23;;;;;;;5.90;95.40;100554.28;5110926;27;41838;-82
2022/01/11 09:56:45;;;;;;;4.87;3.17;;;;;;;6.19;93.29;100542.38;5110701;27;42139;-84
2022/01/11 09:59:17;;;;;;;4.63;3.00;;;;;;;6.56;91.16;100547.81;5110910;27;38580;-82
2022/01/11 10:02:01;;;;;;;4.43;2.33;;;;;;;6.77;88.75;100543.03;5127999;27;40618;-87
2022/01/11 10:04:45;;;;;;;5.40;3.03;;;;;;;6.94;86.83;100534.75;5110115;27;43347;-89
2022/01/11 10:07:30;;;;;;;4.23;2.90;;;;;;;7.19;85.21;100543.00;5111519;27;42055;-83
2022/01/11 10:09:59;;;;;;;4.13;2.43;;;;;;;7.36;84.15;100554.06;5125574;27;40103;-84
2022/01/11 10:12:34;;;;;;;3.03;2.63;;;;;;;7.33;81.01;100542.72;5111333;27;40678;-87
2022/01/11 10:15:02;;;;;;;4.33;2.70;;;;;;;7.52;79.42;100565.13;5110474;27;41973;-89
2022/01/11 10:17:39;;;;;;;2.93;2.17;;;;;;;7.62;79.82;100561.38;5111013;27;41332;-84
2022/01/11 10:20:11;;;;;;;2.63;2.07;;;;;;;7.67;80.00;100542.78;5110158;27;38846;-84
2022/01/11 10:22:53;;;;;;;4.20;2.60;;;;;;;7.82;78.35;100552.97;5111118;27;40900;-87
2022/01/11 10:25:21;;;;;;;4.53;3.00;;;;;;;7.96;78.20;100560.56;5110495;27;42274;-84
2022/01/11 10:28:01;;;;;;;4.87;2.70;;;;;;;8.09;78.36;100562.84;5110910;27;42483;-85
2022/01/11 10:30:34;;;;;;;4.70;2.67;;;;;;;8.06;77.40;100536.53;5125169;27;40734;-85
2022/01/11 10:33:10;;;;;;;4.53;2.60;;;;;;;8.20;77.25;100544.09;5110588;27;40699;-88
2022/01/11 10:35:46;;;;;;;5.17;3.20;;;;;;;8.25;75.81;100550.16;5110049;27;41713;-84
2022/01/11 10:38:26;;;;;;;3.30;2.17;;;;;;;8.31;73.42;100576.38;5110858;27;42180;-89
2022/01/11 10:40:55;;;;;;;4.40;2.77;;;;;;;8.19;72.65;100563.47;5109835;27;39742;-84
2022/01/11 10:43:23;;;;;;;5.47;2.77;;;;;;;8.21;74.08;100552.00;5111096;27;41649;-83
2022/01/11 10:45:53;;;;;;;3.60;2.67;;;;;;;8.36;74.30;100571.00;5109347;27;41752;-87
2022/01/11 10:48:26;;;;;;;3.67;2.57;;;;;;;8.35;74.07;100558.72;5112277;27;42086;-89
2022/01/11 10:50:59;;;;;;;3.13;2.30;;;;;;;8.30;71.61;100562.31;5110354;27;38911;-85
2022/01/11 10:53:32;;;;;;;3.33;2.23;;;;;;;8.34;72.62;100570.19;5110895;27;40831;-90
2022/01/11 10:56:02;;;;;;;3.30;2.30;;;;;;;8.33;71.62;100571.94;5108266;27;41856;-89
2022/01/11 10:58:36;;;;;;;3.83;2.60;;;;;;;8.16;69.96;100569.69;5096022;28;42474;-85
2022/01/11 11:01:07;;;;;;;2.83;2.20;;;;;;;8.25;70.17;100585.34;5097153;28;40008;-84
2022/01/11 11:03:38;;;;;;;2.97;2.50;;;;;;;8.21;70.97;100567.81;5097274;28;40981;-87
2022/01/11 11:06:13;;;;;;;1.87;1.50;;;;;;;8.23;69.22;100608.25;5095836;28;41264;-86
2022/01/11 11:08:44;;;;;;;3.37;2.33;;;;;;;8.07;68.38;100590.19;5096562;28;41216;-84
2022/01/11 11:11:23;;;;;;;3.03;1.87;;;;;;;8.09;68.70;100578.69;5095920;28;38956;-87
2022/01/11 11:14:14;;;;;;;4.83;2.30;;;;;;;8.09;68.81;100575.19;5113177;28;41764;-88
2022/01/11 11:16:46;;;;;;;3.07;2.10;;;;;;;8.29;70.03;100591.38;5094906;28;43397;-86
2022/01/11 11:19:21;;;;;;;4.23;2.20;;;;;;;8.40;70.09;100588.53;5096537;28;41063;-88
2022/01/11 11:22:00;;;;;;;3.97;2.90;;;;;;;8.21;69.17;100552.00;5095798;28;39623;-83
2022/01/11 11:24:27;;;;;;;2.93;1.87;;;;;;;8.38;68.32;100585.03;5113297;28;42459;-84
2022/01/11 11:26:55;;;;;;;2.93;2.13;;;;;;;8.42;68.63;100576.13;5095483;28;41549;-84
2022/01/11 11:29:24;;;;;;;2.77;2.20;;;;;;;8.49;68.16;100589.13;5113619;28;42238;-84
2022/01/11 11:31:53;;;;;;;2.97;2.20;;;;;;;8.57;68.16;100596.84;5112905;28;38920;-82
2022/01/11 11:34:23;;;;;;;2.00;1.70;;;;;;;8.52;67.77;100583.78;5095530;28;40559;-82
2022/01/11 11:36:51;;;;;;;3.00;2.20;;;;;;;8.56;68.37;100579.25;5117825;28;43053;-79
2022/01/11 11:39:22;;;;;;;3.30;2.10;;;;;;;8.71;68.53;100586.78;5132019;28;42916;-81
2022/01/11 11:41:51;;;;;;;3.47;2.30;;;;;;;8.71;66.93;100588.56;5116224;28;39590;-83
2022/01/11 11:44:21;;;;;;;2.83;2.27;;;;;;;8.70;66.52;100587.69;5115491;28;40519;-83
2022/01/11 11:46:53;;;;;;;3.03;2.10;;;;;;;8.73;66.42;100582.31;5113799;28;41762;-81
2022/01/11 11:49:44;;;;;;;5.80;2.60;;;;;;;8.81;66.68;100576.81;5116320;28;40968;-83
2022/01/11 11:52:23;;;;;;;2.80;2.20;;;;;;;8.78;66.42;100558.44;5086884;28;38934;-86
2022/01/11 11:54:52;;;;;;;3.33;2.03;;;;;;;8.90;65.49;100579.22;5084756;28;40634;-84
2022/01/11 11:57:22;;;;;;;3.07;2.00;;;;;;;8.92;65.57;100572.97;5104931;28;42326;-86
2022/01/11 11:59:55;;;;;;;2.23;1.90;;;;;;;8.90;65.48;100558.94;5105294;28;41470;-85
2022/01/11 12:02:35;;;;;;;2.53;1.57;;;;;;;9.06;65.87;100558.50;5101340;28;39549;-85
2022/01/11 12:05:06;;;;;;;2.83;2.10;;;;;;;9.07;66.73;100547.00;5095611;28;41044;-83
2022/01/11 12:07:39;;;;;;;3.77;2.80;;;;;;;9.17;64.77;100569.63;5112331;27;43023;-83
2022/01/11 12:10:12;;;;;;;2.00;1.40;;;;;;;9.05;64.16;100557.63;5110865;28;41550;-86
2022/01/11 12:12:42;;;;;;;2.50;2.03;;;;;;;8.98;63.35;100554.31;5095140;28;38711;-85
2022/01/11 12:15:38;;;;;;;3.27;2.00;;;;;;;9.05;64.20;100572.63;5094681;28;40868;-83
2022/01/11 12:18:15;;;;;;;2.83;1.80;;;;;;;8.94;63.40;100555.28;5095056;28;41902;-89
2022/01/11 12:20:47;;;;;;;2.67;1.47;;;;;;;9.00;63.53;100571.00;5111227;28;41084;-83
2022/01/11 12:23:20;;;;;;;2.47;2.00;;;;;;;8.86;64.03;100541.44;5108752;28;39987;-80
2022/01/11 12:25:53;;;;;;;1.77;1.43;;;;;;;8.95;63.09;100557.03;5110362;28;41769;-84
2022/01/11 12:28:22;;;;;;;2.60;2.23;;;;;;;9.04;63.11;100566.47;5110183;28;43482;-80
2022/01/11 12:30:50;;;;;;;2.87;1.70;;;;;;;8.81;61.84;100543.34;5090803;28;43803;-84
2022/01/11 12:33:21;;;;;;;3.37;1.73;;;;;;;8.90;62.86;100558.09;5111137;28;39217;-86
2022/01/11 12:36:09;;;;;;;2.23;1.87;;;;;;;8.84;63.09;100558.25;5097186;28;40633;-85
2022/01/11 12:38:37;;;;;;;2.20;1.60;;;;;;;8.82;63.37;100554.78;5105806;27;42583;-88
2022/01/11 12:41:28;;;;;;;2.47;1.67;;;;;;;8.95;64.76;100562.31;5119081;27;41211;-88
2022/01/11 12:44:20;;;;;;;2.43;1.60;;;;;;;8.95;64.50;100562.31;5103286;28;38945;-84
2022/01/11 12:46:54;;;;;;;1.27;1.17;;;;;;;8.95;65.05;100558.81;5096054;28;41025;-84
2022/01/11 12:49:21;;;;;;;1.70;1.30;;;;;;;8.83;62.05;100567.94;5095172;28;42112;-84
2022/01/11 12:51:56;;;;;;;1.47;0.83;;;;;;;8.81;58.53;100606.75;5097052;28;41208;-91
2022/01/11 12:54:32;;;;;;;1.57;1.47;;;;;;;8.67;58.84;100589.53;5112879;28;40382;-83
2022/01/11 12:57:02;;;;;;;2.17;1.30;;;;;;;8.65;58.89;100579.03;5110005;28;41753;-81
2022/01/11 12:59:32;;;;;;;0.80;0.80;;;;;;;8.69;58.32;100600.94;5112926;28;42652;-82
2022/01/11 13:02:09;;;;;;;0.90;0.90;;;;;;;8.22;59.39;100522.06;5113085;28;42086;-84
2022/01/11 13:04:47;;;;;;;1.20;1.20;;;;;;;8.56;58.22;100595.09;5095503;28;39060;-87
2022/01/11 13:07:20;;;;;;;1.03;1.03;;;;;;;8.59;58.66;100597.69;5112638;28;40613;-81
2022/01/11 13:09:57;;;;;;;2.33;0.73;;;;;;;8.53;57.41;100611.06;5112971;28;43103;-83
2022/01/11 13:12:27;;;;;;;2.13;1.17;;;;;;;8.43;58.14;100594.56;5098489;28;42379;-86
2022/01/11 13:15:00;;;;;;;2.23;1.17;;;;;;;8.35;58.38;100582.47;5095311;28;38996;-88
2022/01/11 13:17:29;;;;;;;1.67;1.30;;;;;;;8.23;57.73;100586.25;5096022;28;42339;-92
2022/01/11 13:20:09;;;;;;;1.20;1.10;;;;;;;8.35;59.28;100585.13;5112533;27;41750;-85
2022/01/11 13:23:07;;;;;;;1.63;1.30;;;;;;;8.25;59.79;100573.91;5112349;27;41392;-91
2022/01/11 13:25:36;;;;;;;1.17;1.00;;;;;;;8.26;60.22;100565.94;5116784;27;38721;-84
2022/01/11 13:28:05;;;;;;;3.03;1.37;;;;;;;8.03;59.93;100538.41;5117317;27;41885;-84
2022/01/11 13:30:42;;;;;;;1.97;1.53;;;;;;;8.24;61.41;100573.03;5095024;28;43048;-84
2022/01/11 13:33:12;;;;;;;4.37;1.67;;;;;;;8.14;61.99;100565.41;5130646;27;41084;-83
2022/01/11 13:35:40;;;;;;;1.87;1.57;;;;;;;8.06;62.57;100552.38;5132280;27;39212;-87
2022/01/11 13:38:12;;;;;;;2.53;1.57;;;;;;;8.06;62.53;100557.66;5117706;27;42718;-86
2022/01/11 13:40:44;;;;;;;2.70;1.80;;;;;;;8.04;63.32;100545.41;5093513;28;42140;-85
2022/01/11 13:43:13;;;;;;;2.20;1.93;;;;;;;8.13;63.48;100561.03;5108941;28;43139;-85
2022/01/11 13:45:43;;;;;;;2.67;1.70;;;;;;;8.11;62.99;100571.59;5093345;28;39037;-83
2022/01/11 13:48:14;;;;;;;1.60;1.30;;;;;;;8.07;61.13;100585.78;5111185;28;41252;-85
2022/01/11 13:50:50;;;;;;;2.37;1.23;;;;;;;7.92;59.51;100586.13;5083791;28;42181;-87
2022/01/11 13:53:41;;;;;;;2.23;1.37;;;;;;;7.90;61.09;100565.09;5109004;28;42424;-85
2022/01/11 13:56:11;;;;;;;1.73;1.30;;;;;;;8.04;62.06;100570.00;5088354;28;39141;-87
2022/01/11 13:58:40;;;;;;;1.80;1.63;;;;;;;7.98;62.41;100559.63;5094084;28;42227;-87
2022/01/11 14:01:13;;;;;;;1.60;1.50;;;;;;;7.99;62.66;100542.88;5093805;28;41652;-81
2022/01/11 14:03:40;;;;;;;1.93;1.50;;;;;;;8.04;61.70;100559.44;5094006;28;42647;-89
2022/01/11 14:06:13;;;;;;;2.23;1.50;;;;;;;8.12;61.17;100586.53;5094154;28;39111;-83
2022/01/11 14:08:49;;;;;;;4.00;1.73;;;;;;;8.02;61.15;100568.34;5094011;28;40633;-85
2022/01/11 14:11:26;;;;;;;2.33;1.80;;;;;;;7.97;61.17;100562.28;5093440;28;41604;-85
2022/01/11 14:13:58;;;;;;;1.93;1.73;;;;;;;7.90;61.67;100561.59;5094509;28;41142;-85
2022/01/11 14:16:26;;;;;;;2.83;1.90;;;;;;;7.83;62.76;100550.31;5092946;28;39244;-87
2022/01/11 14:19:05;;;;;;;2.40;2.10;;;;;;;7.80;63.07;100549.50;5110579;28;41509;-87
2022/01/11 14:21:33;;;;;;;2.80;1.97;;;;;;;7.77;63.73;100561.03;5110172;28;41880;-89
2022/01/11 14:24:02;;;;;;;3.20;1.73;;;;;;;7.69;64.02;100551.53;5111160;28;42333;-83
2022/01/11 14:26:34;;;;;;;2.77;2.00;;;;;;;7.71;63.61;100570.84;5093406;28;39215;-83
2022/01/11 14:29:02;;;;;;;3.90;2.10;;;;;;;7.56;63.89;100554.47;5111868;28;42489;-85
2022/01/11 14:31:32;;;;;;;2.47;2.23;;;;;;;7.35;64.42;100520.69;5110771;27;42711;-88
2022/01/11 14:34:10;;;;;;;3.50;2.23;;;;;;;7.52;64.91;100550.19;5097133;28;41214;-84
2022/01/11 14:36:38;;;;;;;2.37;2.03;;;;;;;7.61;65.38;100564.03;5097440;28;38848;-90
2022/01/11 14:39:10;;;;;;;2.73;2.00;;;;;;;7.49;65.27;100560.78;5097287;28;40837;-87
2022/01/11 14:41:41;;;;;;;2.03;1.77;;;;;;;7.53;65.66;100565.09;5096758;28;41633;-85
2022/01/11 14:44:11;;;;;;;2.30;1.97;;;;;;;7.49;65.66;100568.69;5099242;28;40884;-89
2022/01/11 14:46:44;;;;;;;3.23;1.90;;;;;;;7.09;65.98;100496.69;5115501;28;39634;-87
2022/01/11 14:49:16;;;;;;;2.07;1.80;;;;;;;7.39;65.73;100564.53;5095719;28;41041;-85
2022/01/11 14:51:46;;;;;;;3.47;1.73;;;;;;;7.29;66.08;100557.75;5098086;27;41827;-85
2022/01/11 14:54:19;;;;;;;3.03;2.00;;;;;;;7.24;65.86;100556.97;5094449;28;42680;-88
2022/01/11 14:56:50;;;;;;;3.93;2.67;;;;;;;7.24;66.35;100570.13;5096204;28;40155;-87
2022/01/11 14:59:19;;;;;;;2.77;2.00;;;;;;;7.14;65.36;100568.59;5095654;28;40420;-86
2022/01/11 15:01:49;;;;;;;2.83;1.63;;;;;;;7.06;64.81;100573.16;5112653;28;42413;-85
2022/01/11 15:04:19;;;;;;;2.03;1.40;;;;;;;7.12;64.27;100591.47;5096469;28;41320;-84
2022/01/11 15:06:53;;;;;;;1.83;1.50;;;;;;;6.98;63.08;100585.63;5113152;28;39716;-86
2022/01/11 15:09:24;;;;;;;1.90;1.57;;;;;;;6.91;63.56;100576.13;5095204;28;42468;-87
2022/01/11 15:11:56;;;;;;;3.03;2.27;;;;;;;6.99;64.58;100592.63;5095993;28;41702;-87
2022/01/11 15:14:28;;;;;;;1.97;1.77;;;;;;;6.87;64.55;100579.69;5096737;28;41003;-87
2022/01/11 15:16:57;;;;;;;3.87;2.13;;;;;;;6.81;64.17;100580.69;5097777;28;38867;-84
2022/01/11 15:19:25;;;;;;;2.40;1.87;;;;;;;6.83;64.32;100600.81;5095469;28;40833;-83
2022/01/11 15:21:54;;;;;;;2.50;1.97;;;;;;;6.82;64.59;100601.72;5095913;28;41950;-85
2022/01/11 15:24:24;;;;;;;3.80;2.20;;;;;;;6.82;65.14;100603.47;5095763;28;41056;-87
2022/01/11 15:26:54;;;;;;;2.83;1.87;;;;;;;6.81;65.22;100599.09;5095747;28;39004;-86
2022/01/11 15:29:25;;;;;;;1.93;1.50;;;;;;;6.75;64.87;100602.75;5112372;28;40723;-84
2022/01/11 15:31:54;;;;;;;2.17;1.97;;;;;;;6.70;65.01;100591.41;5112376;28;41525;-86
2022/01/11 15:34:22;;;;;;;1.37;1.13;;;;;;;6.75;64.83;100605.38;5096724;28;40817;-89
2022/01/11 15:36:51;;;;;;;3.10;2.00;;;;;;;6.72;64.38;100608.06;5095469;28;39178;-86
2022/01/11 15:39:20;;;;;;;1.27;1.10;;;;;;;6.60;64.36;100591.63;5098839;28;40474;-85
2022/01/11 15:41:50;;;;;;;1.87;1.47;;;;;;;6.69;64.57;100608.13;5113761;28;43119;-87
2022/01/11 15:44:19;;;;;;;2.07;1.83;;;;;;;6.68;64.90;100613.41;5113171;28;42283;-85
2022/01/11 15:46:47;;;;;;;1.93;1.70;;;;;;;6.66;64.46;100618.72;5112832;28;39789;-86
2022/01/11 15:49:18;;;;;;;3.47;1.83;;;;;;;6.52;64.46;100604.94;5095931;28;40847;-84
2022/01/11 15:51:47;;;;;;;2.23;1.80;;;;;;;6.58;64.00;100639.03;5112071;28;42021;-84
2022/01/11 15:54:15;;;;;;;2.07;1.87;;;;;;;6.45;63.70;100619.09;5094600;28;41276;-83
2022/01/11 15:56:43;;;;;;;1.57;1.47;;;;;;;6.47;62.72;100638.34;5094883;28;39183;-83
2022/01/11 15:59:12;;;;;;;2.10;1.50;;;;;;;6.35;63.35;100609.63;5112150;28;41428;-84
2022/01/11 16:01:40;;;;;;;1.70;1.60;;;;;;;6.33;63.57;100614.03;5097206;28;42539;-90
2022/01/11 16:04:07;;;;;;;1.27;1.10;;;;;;;6.34;63.03;100623.66;5096182;28;41390;-87
2022/01/11 16:06:37;;;;;;;1.60;1.40;;;;;;;6.29;63.47;100622.91;5096725;28;38547;-88
2022/01/11 16:09:05;;;;;;;1.77;1.30;;;;;;;6.29;63.54;100623.78;5096216;28;41608;-90
2022/01/11 16:11:34;;;;;;;1.77;1.47;;;;;;;6.37;63.73;100636.78;5095113;28;42802;-87
2022/01/11 16:14:03;;;;;;;1.90;1.70;;;;;;;6.17;63.11;100616.09;5095937;28;41002;-92
2022/01/11 16:16:32;;;;;;;3.27;2.10;;;;;;;6.21;63.53;100625.63;5095150;28;40222;-86
2022/01/11 16:19:01;;;;;;;2.50;1.70;;;;;;;6.12;62.85;100618.78;5094782;28;41547;-90
2022/01/11 16:21:29;;;;;;;1.80;1.67;;;;;;;6.14;62.98;100639.81;5093595;28;42637;-86
2022/01/11 16:23:57;;;;;;;1.23;1.13;;;;;;;6.01;62.07;100623.34;5077775;28;41017;-89
2022/01/11 16:26:24;;;;;;;2.40;1.43;;;;;;;6.05;62.80;100630.31;5094566;28;39323;-85
2022/01/11 16:28:59;;;;;;;3.23;1.60;;;;;;;6.03;62.66;100633.84;5094701;28;40673;-87
2022/01/11 16:31:26;;;;;;;1.90;1.27;;;;;;;6.00;62.48;100637.38;5092128;28;42872;-85
2022/01/11 16:33:57;;;;;;;1.33;1.20;;;;;;;5.98;62.26;100639.16;5097145;27;41346;-87
2022/01/11 16:36:25;;;;;;;2.10;1.40;;;;;;;5.92;62.33;100634.00;5114252;27;38983;-85
2022/01/11 16:38:57;;;;;;;1.53;1.43;;;;;;;6.05;62.90;100653.97;5111705;27;40713;-87
